Time;durP1;ratioP1;P1;durP2;ratioP2;P2;SDS_P1;SDS_P2;PMS_P1;PMS_P2;Temp;Humidity;BMP_temperature;BMP_pressure;BME280_temperature;BME280_humidity;BME280_pressure;Samples;Min_cycle;Max_cycle;Signal;HPM_P1;HPM_P2
2021/12/23 00:01:31;;;;;;;24.38;18.27;;;;;;;1.28;100.00;101607.63;5064040;28;20035;-78
2021/12/23 00:03:57;;;;;;;26.00;18.13;;;;;;;1.24;100.00;101589.31;5057287;28;20723;-80
2021/12/23 00:06:22;;;;;;;28.13;19.13;;;;;;;1.12;100.00;101590.94;5064880;28;20040;-78
2021/12/23 00:08:48;;;;;;;24.30;19.00;;;;;;;1.15;100.00;101606.72;5061068;28;20082;-80
2021/12/23 00:11:13;;;;;;;25.45;18.92;;;;;;;1.06;100.00;101597.97;5042972;28;20472;-79
2021/12/23 00:13:48;;;;;;;22.98;17.92;;;;;;;1.16;100.00;101575.97;5027010;28;20060;-79
2021/12/23 00:16:18;;;;;;;24.70;18.75;;;;;;;1.28;100.00;101571.69;5044551;28;20492;-80
2021/12/23 00:18:50;;;;;;;24.52;17.05;;;;;;;1.32;100.00;101572.94;5058866;28;20131;-79
2021/12/23 00:24:01;;;;;;;25.75;17.20;;;;;;;1.38;100.00;101553.22;5058234;28;20209;-78
2021/12/23 00:26:27;;;;;;;26.73;18.02;;;;;;;1.19;100.00;101543.16;5064963;28;20037;-79
2021/12/23 00:28:54;;;;;;;26.23;17.67;;;;;;;1.18;100.00;101544.19;5059816;28;20029;-78
2021/12/23 00:31:20;;;;;;;23.75;18.10;;;;;;;1.01;100.00;101533.75;5052637;28;20024;-79
2021/12/23 00:33:46;;;;;;;23.70;18.63;;;;;;;1.29;100.00;101547.13;5017604;28;20483;-79
2021/12/23 00:36:12;;;;;;;27.65;18.27;;;;;;;1.34;100.00;101543.81;5049869;28;20036;-80
2021/12/23 00:38:46;;;;;;;22.48;16.75;;;;;;;1.41;100.00;101528.47;5065545;28;20087;-80
2021/12/23 00:41:13;;;;;;;25.13;18.30;;;;;;;1.38;100.00;101509.16;5057298;28;20112;-79
2021/12/23 00:43:41;;;;;;;24.77;17.77;;;;;;;1.39;100.00;101521.59;5059567;28;20446;-79
2021/12/23 00:46:07;;;;;;;26.15;17.60;;;;;;;1.35;100.00;101518.50;5044077;28;20126;-80
2021/12/23 00:48:35;;;;;;;22.70;17.45;;;;;;;1.27;100.00;101521.38;5047399;28;20579;-80
2021/12/23 00:51:01;;;;;;;31.08;18.40;;;;;;;1.22;100.00;101508.47;5060208;28;20028;-81
2021/12/23 00:53:32;;;;;;;28.75;18.77;;;;;;;1.18;100.00;101496.44;5046724;28;20045;-79
2021/12/23 00:55:57;;;;;;;28.35;18.95;;;;;;;1.25;100.00;101472.13;5026020;28;20024;-79
2021/12/23 00:58:23;;;;;;;29.15;19.48;;;;;;;1.34;100.00;101494.38;5047549;28;20039;-77
2021/12/23 01:00:49;;;;;;;27.13;19.25;;;;;;;1.37;100.00;101510.19;5048591;28;20380;-79
2021/12/23 01:03:15;;;;;;;29.35;19.77;;;;;;;1.31;100.00;101509.09;5064115;28;20036;-82
2021/12/23 01:05:43;;;;;;;26.10;18.65;;;;;;;1.20;100.00;101488.13;5050059;28;20044;-79
2021/12/23 01:08:09;;;;;;;31.77;20.13;;;;;;;1.08;100.00;101487.84;5045343;28;20495;-79
2021/12/23 01:10:35;;;;;;;28.77;19.73;;;;;;;1.10;100.00;101497.44;5061242;28;20043;-79
2021/12/23 01:13:04;;;;;;;28.13;18.85;;;;;;;1.08;100.00;101494.13;5046917;28;20021;-80
2021/12/23 01:18:11;;;;;;;29.90;19.75;;;;;;;1.01;100.00;101484.31;5064213;28;20399;-80
2021/12/23 01:20:39;;;;;;;27.15;20.48;;;;;;;1.13;100.00;101479.97;5054884;28;20032;-80
2021/12/23 01:23:07;;;;;;;30.23;21.05;;;;;;;1.04;100.00;101476.63;5062865;28;20173;-80
2021/12/23 01:25:35;;;;;;;27.15;19.65;;;;;;;1.07;100.00;101475.41;5046659;28;20076;-79
2021/12/23 01:28:01;;;;;;;28.23;19.80;;;;;;;1.07;100.00;101470.84;5046288;28;20044;-79
2021/12/23 01:30:27;;;;;;;29.25;20.05;;;;;;;1.10;100.00;101477.72;5061637;28;20358;-80
2021/12/23 01:32:56;;;;;;;32.63;20.58;;;;;;;0.98;100.00;101471.22;5045798;28;20031;-79
2021/12/23 01:35:22;;;;;;;28.42;20.63;;;;;;;0.87;100.00;101467.22;5033013;28;20452;-79
2021/12/23 01:37:48;;;;;;;30.45;21.40;;;;;;;0.82;100.00;101469.69;5044471;28;20031;-79
2021/12/23 01:40:16;;;;;;;25.75;19.42;;;;;;;0.89;100.00;101462.47;5046451;28;20223;-80
2021/12/23 01:42:42;;;;;;;27.38;19.92;;;;;;;0.87;100.00;101467.22;5047260;28;20037;-79
2021/12/23 01:45:10;;;;;;;30.50;20.98;;;;;;;0.73;100.00;101448.28;5045884;28;20075;-79
2021/12/23 01:47:36;;;;;;;32.22;21.52;;;;;;;0.59;100.00;101443.03;5036095;28;20025;-79
2021/12/23 01:50:01;;;;;;;31.65;21.40;;;;;;;0.44;100.00;101429.69;5045292;28;20091;-81
2021/12/23 01:52:27;;;;;;;36.53;23.42;;;;;;;0.48;100.00;101421.00;5045891;28;20090;-79
2021/12/23 01:54:52;;;;;;;35.28;24.40;;;;;;;0.43;100.00;101420.78;5043791;28;20110;-79
2021/12/23 01:57:18;;;;;;;36.70;25.48;;;;;;;0.50;100.00;101399.22;5037124;28;20033;-79
2021/12/23 01:59:43;;;;;;;40.05;26.35;;;;;;;0.51;100.00;101400.88;5044928;28;20764;-80
2021/12/23 02:02:11;;;;;;;49.22;30.10;;;;;;;0.35;100.00;101402.88;5044284;28;20808;-81
2021/12/23 02:04:37;;;;;;;47.83;30.08;;;;;;;0.50;100.00;101401.91;5030100;28;20044;-80
2021/12/23 02:07:03;;;;;;;50.10;32.13;;;;;;;0.59;100.00;101395.31;5027057;28;20024;-79
2021/12/23 02:09:28;;;;;;;55.75;32.78;;;;;;;0.61;100.00;101387.84;5044819;28;20463;-80
2021/12/23 02:11:55;;;;;;;56.45;34.70;;;;;;;0.79;100.00;101391.81;5042728;28;20027;-81
2021/12/23 02:14:22;;;;;;;55.47;35.08;;;;;;;0.80;100.00;101393.50;5043436;28;20387;-79
2021/12/23 02:16:51;;;;;;;54.45;34.15;;;;;;;0.78;100.00;101400.97;5027804;28;20021;-80
2021/12/23 02:19:18;;;;;;;55.00;35.92;;;;;;;0.84;100.00;101389.38;5025727;28;20033;-79
2021/12/23 02:21:45;;;;;;;55.92;35.80;;;;;;;1.03;100.00;101385.88;5044568;28;20033;-79
2021/12/23 02:24:11;;;;;;;59.60;36.95;;;;;;;0.88;100.00;101391.44;5057295;28;20235;-80
2021/12/23 02:26:38;;;;;;;64.13;38.60;;;;;;;0.80;100.00;101396.19;5065362;28;20035;-79
2021/12/23 02:29:03;;;;;;;63.83;40.05;;;;;;;1.04;100.00;101382.13;5062199;28;20025;-80
2021/12/23 02:31:29;;;;;;;62.97;39.92;;;;;;;0.87;100.00;101388.94;5057037;28;20054;-80
2021/12/23 02:33:54;;;;;;;66.90;39.25;;;;;;;0.79;100.00;101379.19;5023453;28;20537;-80
2021/12/23 02:36:20;;;;;;;75.32;44.72;;;;;;;0.88;100.00;101372.53;5036296;28;20031;-78
2021/12/23 02:38:46;;;;;;;87.82;46.33;;;;;;;1.00;100.00;101378.19;5048520;28;20039;-80
2021/12/23 02:41:11;;;;;;;79.40;44.33;;;;;;;1.08;100.00;101375.28;5043387;28;20260;-79
2021/12/23 02:43:37;;;;;;;81.57;44.88;;;;;;;0.98;100.00;101374.84;5064699;28;20039;-80
2021/12/23 02:46:02;;;;;;;83.90;46.35;;;;;;;1.18;100.00;101368.63;5062092;28;20035;-79
2021/12/23 02:48:32;;;;;;;80.18;45.58;;;;;;;1.22;100.00;101369.88;5062873;28;20090;-80
2021/12/23 02:50:59;;;;;;;82.63;44.35;;;;;;;1.26;100.00;101363.88;5059145;28;20071;-80
2021/12/23 02:53:25;;;;;;;78.63;45.58;;;;;;;1.07;100.00;101346.59;5056426;28;20082;-81
2021/12/23 02:55:55;;;;;;;78.50;46.13;;;;;;;0.86;100.00;101355.72;5047553;28;20483;-79
2021/12/23 02:58:21;;;;;;;82.80;46.72;;;;;;;1.03;100.00;101358.03;5057491;28;20636;-78
2021/12/23 03:00:48;;;;;;;79.80;44.25;;;;;;;0.99;100.00;101360.31;5009966;28;20028;-79
2021/12/23 03:03:14;;;;;;;79.68;45.13;;;;;;;1.19;100.00;101346.00;5059791;28;20659;-80
2021/12/23 03:05:46;;;;;;;77.90;43.38;;;;;;;1.06;100.00;101344.13;5064028;28;20284;-80
2021/12/23 03:08:11;;;;;;;79.40;44.15;;;;;;;0.97;100.00;101338.09;5046955;28;20033;-76
2021/12/23 03:10:37;;;;;;;87.68;45.58;;;;;;;1.03;100.00;101323.78;5044196;28;20032;-79
2021/12/23 03:13:02;;;;;;;80.25;45.33;;;;;;;1.05;100.00;101305.47;5062928;28;20494;-80
2021/12/23 03:15:28;;;;;;;84.05;45.70;;;;;;;0.92;100.00;101300.09;5017761;28;20091;-79
2021/12/23 03:17:55;;;;;;;85.72;47.05;;;;;;;0.99;100.00;101302.78;5042859;28;20028;-82
2021/12/23 03:20:20;;;;;;;90.40;46.10;;;;;;;0.92;100.00;101294.69;5011844;28;20083;-79
2021/12/23 03:22:46;;;;;;;89.85;46.35;;;;;;;0.90;100.00;101297.59;5051913;28;20476;-80
2021/12/23 03:25:11;;;;;;;94.90;49.53;;;;;;;0.81;100.00;101293.41;5051731;28;20055;-80
2021/12/23 03:27:37;;;;;;;99.45;50.08;;;;;;;0.77;100.00;101321.03;5058770;28;20491;-80
2021/12/23 03:30:05;;;;;;;95.22;49.00;;;;;;;0.86;100.00;101342.22;5064707;28;20028;-79
2021/12/23 03:32:30;;;;;;;96.43;48.47;;;;;;;0.77;100.00;101354.25;5052226;28;20365;-78
2021/12/23 03:34:57;;;;;;;94.40;49.78;;;;;;;0.98;100.00;101342.44;5041680;28;20550;-79
2021/12/23 03:37:22;;;;;;;95.55;48.95;;;;;;;1.12;100.00;101328.97;5031611;28;20039;-80
2021/12/23 03:39:51;;;;;;;92.72;48.45;;;;;;;1.27;100.00;101324.19;5050197;28;20028;-79
2021/12/23 03:42:16;;;;;;;89.85;49.17;;;;;;;1.40;100.00;101323.34;5061442;28;20352;-80
2021/12/23 03:44:42;;;;;;;90.38;48.25;;;;;;;1.32;100.00;101327.06;5059805;28;20087;-79
2021/12/23 03:47:09;;;;;;;95.18;47.15;;;;;;;1.24;100.00;101332.69;5028389;28;20487;-79
2021/12/23 03:49:35;;;;;;;90.00;45.17;;;;;;;1.27;100.00;101329.56;5026063;28;20040;-79
2021/12/23 03:52:00;;;;;;;94.65;48.10;;;;;;;1.29;100.00;101319.38;5077159;28;20032;-80
2021/12/23 03:54:26;;;;;;;92.63;47.95;;;;;;;1.39;100.00;101322.50;5067046;28;20106;-80
2021/12/23 03:56:52;;;;;;;94.45;49.70;;;;;;;1.12;100.00;101328.97;5067535;28;20402;-79
2021/12/23 03:59:17;;;;;;;101.93;47.28;;;;;;;1.13;100.00;101341.41;5065851;28;20319;-80
2021/12/23 04:01:43;;;;;;;93.78;48.05;;;;;;;1.21;100.00;101341.22;5068839;28;20111;-79
2021/12/23 04:04:08;;;;;;;98.05;49.08;;;;;;;1.16;100.00;101341.81;5050866;28;20059;-79
2021/12/23 04:06:34;;;;;;;99.22;50.33;;;;;;;1.15;100.00;101323.97;5047461;28;20805;-80
2021/12/23 04:09:02;;;;;;;98.78;48.53;;;;;;;1.16;100.00;101343.69;5035440;28;20568;-79
2021/12/23 04:11:28;;;;;;;99.13;48.55;;;;;;;1.36;100.00;101322.94;5037019;28;20567;-79
2021/12/23 04:13:55;;;;;;;95.10;47.75;;;;;;;0.77;100.00;101326.41;5031946;28;20104;-78
2021/12/23 04:16:21;;;;;;;94.47;48.38;;;;;;;0.96;100.00;101319.41;5034908;28;20806;-79
2021/12/23 04:18:49;;;;;;;91.07;46.03;;;;;;;1.03;100.00;101312.13;5067807;28;20028;-79
2021/12/23 04:21:15;;;;;;;85.10;44.60;;;;;;;1.12;100.00;101315.47;5070504;28;20076;-79
2021/12/23 04:23:40;;;;;;;94.40;47.83;;;;;;;1.16;100.00;101305.88;5071749;28;20111;-79
2021/12/23 04:26:09;;;;;;;90.78;44.45;;;;;;;1.29;100.00;101309.41;5066934;28;20463;-80
2021/12/23 04:28:44;;;;;;;84.22;44.50;;;;;;;1.19;100.00;101305.47;5069890;28;20115;-80
2021/12/23 04:31:10;;;;;;;88.70;43.70;;;;;;;1.10;100.00;101300.28;5051710;28;20046;-79
2021/12/23 04:33:35;;;;;;;88.68;44.35;;;;;;;1.03;100.00;101301.31;5025950;28;20033;-80
2021/12/23 04:36:03;;;;;;;89.20;46.03;;;;;;;1.18;100.00;101293.84;5017617;28;20667;-80
2021/12/23 04:38:29;;;;;;;89.00;42.83;;;;;;;1.14;100.00;101283.66;5053201;28;20036;-79
2021/12/23 04:40:54;;;;;;;85.90;42.65;;;;;;;1.27;100.00;101273.66;5063798;28;20098;-80
2021/12/23 04:43:19;;;;;;;85.13;42.75;;;;;;;1.18;100.00;101274.94;5050384;28;20099;-79
2021/12/23 04:45:45;;;;;;;82.70;41.88;;;;;;;1.25;100.00;101278.47;5033088;28;20081;-80
2021/12/23 04:48:10;;;;;;;86.53;44.58;;;;;;;1.31;100.00;101279.47;5050350;28;20348;-80
2021/12/23 04:50:36;;;;;;;86.78;43.67;;;;;;;1.41;100.00;101277.19;5034833;28;20440;-80
2021/12/23 04:53:03;;;;;;;86.50;44.35;;;;;;;1.39;100.00;101265.75;5051103;28;20025;-78
2021/12/23 04:55:30;;;;;;;90.80;45.05;;;;;;;1.35;100.00;101261.81;5034510;28;20045;-79
2021/12/23 04:57:56;;;;;;;87.72;44.15;;;;;;;1.38;100.00;101269.50;5033796;28;20353;-79
2021/12/23 05:00:22;;;;;;;82.55;40.63;;;;;;;1.43;100.00;101269.72;5070735;28;20811;-80
2021/12/23 05:02:48;;;;;;;77.75;40.50;;;;;;;1.53;100.00;101258.47;5072002;28;20024;-80
2021/12/23 05:05:14;;;;;;;87.50;42.63;;;;;;;1.61;100.00;101243.91;5071085;28;20035;-80
2021/12/23 05:07:40;;;;;;;83.70;41.72;;;;;;;1.55;100.00;101250.13;5055146;28;20028;-79
2021/12/23 05:10:11;;;;;;;85.63;43.58;;;;;;;1.42;100.00;101237.50;5053968;28;20077;-80
2021/12/23 05:12:43;;;;;;;75.32;39.78;;;;;;;1.54;100.00;101243.06;5071305;28;20036;-80
2021/12/23 05:15:14;;;;;;;83.88;41.17;;;;;;;1.48;100.00;101236.66;5053795;28;20028;-78
2021/12/23 05:17:39;;;;;;;84.13;41.20;;;;;;;1.58;100.00;101237.03;5071783;28;20039;-80
2021/12/23 05:20:07;;;;;;;78.68;41.42;;;;;;;1.61;100.00;101233.91;5058940;28;20037;-79
2021/12/23 05:22:33;;;;;;;80.70;42.05;;;;;;;1.61;100.00;101222.28;5034584;28;20390;-78
2021/12/23 05:24:58;;;;;;;82.10;41.65;;;;;;;1.55;100.00;101215.00;5060075;28;20550;-78
2021/12/23 05:27:24;;;;;;;82.75;42.67;;;;;;;1.57;100.00;101215.63;5061743;28;20284;-80
2021/12/23 05:29:49;;;;;;;82.35;42.25;;;;;;;1.63;100.00;101206.66;5068909;28;20032;-79
2021/12/23 05:32:15;;;;;;;84.05;41.53;;;;;;;1.49;100.00;101207.75;5050833;28;20550;-79
2021/12/23 05:34:40;;;;;;;80.38;41.60;;;;;;;1.60;100.00;101207.91;5037043;28;20479;-79
2021/12/23 05:37:07;;;;;;;76.93;40.00;;;;;;;1.67;100.00;101210.59;5052029;28;20041;-79
2021/12/23 05:39:33;;;;;;;85.78;41.80;;;;;;;1.71;100.00;101217.25;5015675;28;20037;-79
2021/12/23 05:41:58;;;;;;;81.85;41.95;;;;;;;1.65;100.00;101210.78;5058381;28;20026;-80
2021/12/23 05:44:24;;;;;;;79.45;40.58;;;;;;;1.77;100.00;101210.13;5065493;28;20025;-79
2021/12/23 05:46:49;;;;;;;80.47;42.00;;;;;;;1.63;100.00;101226.41;5065732;28;20367;-80
2021/12/23 05:49:15;;;;;;;78.30;40.75;;;;;;;1.55;100.00;101218.53;5052312;28;21307;-79
2021/12/23 05:51:40;;;;;;;82.57;40.63;;;;;;;1.60;100.00;101217.91;5052731;28;20036;-79
2021/12/23 05:54:07;;;;;;;79.90;38.88;;;;;;;1.73;100.00;101211.63;5017676;28;20546;-79
2021/12/23 05:56:33;;;;;;;85.20;39.67;;;;;;;1.65;100.00;101199.16;5051337;28;20211;-78
2021/12/23 05:58:58;;;;;;;80.93;41.72;;;;;;;1.75;100.00;101186.00;5039544;28;20036;-79
2021/12/23 06:01:24;;;;;;;71.90;38.42;;;;;;;1.74;100.00;101192.47;5038081;28;20037;-81
2021/12/23 06:03:49;;;;;;;82.47;40.72;;;;;;;1.87;100.00;101188.03;5049452;28;20113;-80
2021/12/23 06:06:15;;;;;;;84.88;41.78;;;;;;;1.96;100.00;101186.75;5048379;28;20025;-80
2021/12/23 06:08:42;;;;;;;80.47;40.90;;;;;;;1.96;100.00;101178.66;5059410;28;20039;-79
2021/12/23 06:11:09;;;;;;;82.43;41.85;;;;;;;1.98;100.00;101190.06;5067375;28;20039;-78
2021/12/23 06:13:35;;;;;;;73.82;38.90;;;;;;;1.67;100.00;101204.34;5050284;28;20024;-79
2021/12/23 06:16:01;;;;;;;75.82;38.90;;;;;;;1.82;100.00;101191.38;5067847;28;20037;-79
2021/12/23 06:18:26;;;;;;;78.75;39.22;;;;;;;1.69;100.00;101181.50;5052182;28;20498;-81
2021/12/23 06:20:55;;;;;;;74.35;37.65;;;;;;;1.79;100.00;101176.44;5038211;28;20078;-79
2021/12/23 06:23:26;;;;;;;74.88;39.42;;;;;;;1.92;100.00;101175.56;5036712;28;20025;-80
2021/12/23 06:25:52;;;;;;;75.22;38.83;;;;;;;1.84;100.00;101168.50;5051530;28;20135;-79
2021/12/23 06:28:18;;;;;;;78.22;38.10;;;;;;;1.82;100.00;101165.19;5046898;28;20072;-80
2021/12/23 06:30:46;;;;;;;76.60;38.55;;;;;;;1.98;100.00;101165.72;5047746;28;20065;-80
2021/12/23 06:33:12;;;;;;;77.63;39.47;;;;;;;1.93;100.00;101155.56;5051440;28;20035;-79
2021/12/23 06:35:38;;;;;;;69.60;36.05;;;;;;;1.88;100.00;101146.44;5045467;28;20040;-79
2021/12/23 06:38:07;;;;;;;69.45;35.75;;;;;;;1.92;100.00;101150.38;5035342;28;20036;-79
2021/12/23 06:40:33;;;;;;;73.25;39.22;;;;;;;1.88;100.00;101155.38;5047780;28;20037;-79
2021/12/23 06:42:58;;;;;;;68.55;35.78;;;;;;;1.79;100.00;101133.19;5062593;28;20501;-79
2021/12/23 06:45:24;;;;;;;72.35;38.67;;;;;;;1.94;100.00;101138.31;5046344;28;20033;-80
2021/12/23 06:47:49;;;;;;;71.65;37.67;;;;;;;1.97;100.00;101134.34;5066267;28;20050;-79
2021/12/23 06:50:17;;;;;;;70.38;35.58;;;;;;;2.06;100.00;101138.44;5059321;28;20087;-78
2021/12/23 06:52:42;;;;;;;73.95;37.42;;;;;;;2.10;100.00;101133.41;5030055;28;20060;-80
2021/12/23 06:55:11;;;;;;;69.40;36.95;;;;;;;2.09;100.00;101142.59;5056523;28;20490;-80
2021/12/23 06:57:39;;;;;;;66.78;35.88;;;;;;;2.02;100.00;101134.50;5034822;28;20032;-81
2021/12/23 07:00:08;;;;;;;66.80;37.17;;;;;;;2.00;100.00;101144.69;5064905;28;20119;-80
2021/12/23 07:02:37;;;;;;;68.30;37.17;;;;;;;2.02;100.00;101151.56;5056753;28;20073;-79
2021/12/23 07:05:03;;;;;;;66.20;35.25;;;;;;;2.12;100.00;101156.50;5048303;28;20056;-79
2021/12/23 07:07:30;;;;;;;62.13;34.58;;;;;;;2.05;100.00;101152.16;5031674;28;20686;-80
2021/12/23 07:09:59;;;;;;;70.60;35.20;;;;;;;2.05;100.00;101142.19;5015287;28;20025;-79
2021/12/23 07:12:24;;;;;;;67.82;35.67;;;;;;;2.18;100.00;101152.06;5052221;28;20178;-78
2021/12/23 07:14:50;;;;;;;66.10;34.92;;;;;;;2.11;100.00;101154.00;5053221;28;20036;-81
2021/12/23 07:17:17;;;;;;;68.22;34.90;;;;;;;2.15;100.00;101160.66;5056659;28;20025;-80
2021/12/23 07:19:43;;;;;;;69.60;34.88;;;;;;;2.07;100.00;101158.22;5018059;28;20029;-77
2021/12/23 07:22:08;;;;;;;67.25;35.90;;;;;;;2.12;100.00;101151.09;5063971;28;20509;-80
2021/12/23 07:24:34;;;;;;;68.88;35.45;;;;;;;2.04;100.00;101139.72;5034212;28;20348;-80
2021/12/23 07:27:00;;;;;;;66.32;34.25;;;;;;;2.09;100.00;101142.59;5035118;28;20545;-79
2021/12/23 07:29:26;;;;;;;69.95;35.20;;;;;;;2.16;100.00;101137.94;5062648;28;20051;-80
2021/12/23 07:31:51;;;;;;;68.70;35.03;;;;;;;1.93;100.00;101127.69;5059457;28;20106;-78
2021/12/23 07:34:18;;;;;;;66.35;33.53;;;;;;;2.21;100.00;101113.75;5057008;28;20394;-77
2021/12/23 07:36:44;;;;;;;64.22;34.88;;;;;;;2.10;100.00;101107.19;5039341;28;20115;-79
2021/12/23 07:39:10;;;;;;;61.42;34.20;;;;;;;2.10;100.00;101106.34;5053395;28;20084;-79
2021/12/23 07:41:35;;;;;;;64.72;33.10;;;;;;;2.11;100.00;101108.84;5050942;28;20052;-79
2021/12/23 07:44:04;;;;;;;61.28;34.17;;;;;;;2.17;100.00;101117.97;5048060;28;20029;-79
2021/12/23 07:46:36;;;;;;;62.80;32.97;;;;;;;2.22;100.00;101109.19;5054220;28;20119;-79
2021/12/23 07:49:03;;;;;;;61.70;32.17;;;;;;;2.29;100.00;101109.97;5057985;28;20027;-79
2021/12/23 07:51:28;;;;;;;62.47;34.13;;;;;;;2.29;100.00;101110.78;5062996;28;20116;-78
2021/12/23 07:53:54;;;;;;;64.32;32.22;;;;;;;2.20;100.00;101101.31;5053095;28;20509;-78
2021/12/23 07:56:24;;;;;;;64.22;32.95;;;;;;;2.19;100.00;101102.34;5048308;28;20083;-75
2021/12/23 07:58:59;;;;;;;55.47;30.52;;;;;;;2.04;100.00;101094.56;5056101;28;20055;-79
2021/12/23 08:01:24;;;;;;;61.70;31.90;;;;;;;2.13;100.00;101095.94;5056408;28;20031;-77
2021/12/23 08:03:53;;;;;;;58.13;31.00;;;;;;;1.99;100.00;101087.09;5049775;28;20399;-78
2021/12/23 08:06:22;;;;;;;63.33;34.40;;;;;;;2.01;100.00;101078.75;5015493;28;20441;-78
2021/12/23 08:08:48;;;;;;;59.33;32.15;;;;;;;2.00;100.00;101082.50;5064400;28;20115;-77
2021/12/23 08:11:13;;;;;;;56.95;31.27;;;;;;;2.07;100.00;101077.88;5046911;28;20115;-77
2021/12/23 08:13:39;;;;;;;59.70;31.38;;;;;;;2.04;100.00;101077.50;5037603;28;20037;-78
2021/12/23 08:16:04;;;;;;;62.03;31.65;;;;;;;2.05;100.00;101074.59;5060022;28;20197;-79
2021/12/23 08:18:31;;;;;;;62.53;32.63;;;;;;;2.19;100.00;101062.59;5045683;28;20037;-78
2021/12/23 08:20:58;;;;;;;59.58;31.70;;;;;;;2.31;100.00;101057.31;5048218;28;20466;-80
2021/12/23 08:23:24;;;;;;;58.20;30.90;;;;;;;2.42;100.00;101058.44;5045842;28;20028;-79
2021/12/23 08:25:51;;;;;;;59.85;31.15;;;;;;;2.36;100.00;101059.31;5056656;28;20047;-79
2021/12/23 08:28:16;;;;;;;57.67;30.08;;;;;;;2.36;100.00;101064.72;5063873;28;20107;-78
2021/12/23 08:30:42;;;;;;;58.20;31.55;;;;;;;2.46;100.00;101061.53;5056133;28;20135;-80
2021/12/23 08:33:08;;;;;;;61.65;32.60;;;;;;;2.55;100.00;101068.31;5062837;28;20031;-79
2021/12/23 08:35:35;;;;;;;57.15;30.90;;;;;;;2.70;100.00;101062.53;5061461;28;20069;-80
2021/12/23 08:38:05;;;;;;;59.95;32.15;;;;;;;2.61;100.00;101045.78;5067530;28;20027;-77
2021/12/23 08:40:30;;;;;;;61.03;30.63;;;;;;;2.58;100.00;101041.63;5071404;28;20048;-79
2021/12/23 08:42:58;;;;;;;56.80;31.13;;;;;;;2.47;100.00;101042.34;5065742;28;20048;-80
2021/12/23 08:45:26;;;;;;;60.45;31.15;;;;;;;2.66;100.00;101039.69;5061429;28;20047;-78
2021/12/23 08:47:54;;;;;;;59.05;30.95;;;;;;;2.82;100.00;101030.97;5062037;28;20040;-77
2021/12/23 08:50:22;;;;;;;55.08;30.25;;;;;;;2.88;100.00;101021.91;5064597;28;20048;-78
2021/12/23 08:52:48;;;;;;;55.22;30.33;;;;;;;2.89;100.00;101012.75;5029075;28;20036;-79
2021/12/23 08:55:14;;;;;;;56.28;30.00;;;;;;;2.78;100.00;101002.66;5061366;28;20073;-78
2021/12/23 08:57:40;;;;;;;62.38;32.47;;;;;;;2.73;100.00;100997.13;5043478;28;20123;-79
2021/12/23 09:00:09;;;;;;;59.47;31.50;;;;;;;2.68;100.00;100994.25;5051498;28;20207;-78
2021/12/23 09:02:35;;;;;;;58.22;29.90;;;;;;;2.60;100.00;100998.09;5064880;28;20062;-78
2021/12/23 09:05:00;;;;;;;61.28;32.97;;;;;;;2.56;100.00;100991.47;5065800;28;20123;-77
2021/12/23 09:07:26;;;;;;;61.17;30.38;;;;;;;2.61;100.00;100993.50;5047803;28;20455;-77
2021/12/23 09:09:51;;;;;;;61.80;31.25;;;;;;;2.57;100.00;100982.28;5017468;28;20028;-77
2021/12/23 09:12:21;;;;;;;51.65;27.95;;;;;;;2.57;100.00;100975.03;5065435;28;20081;-79
2021/12/23 09:14:47;;;;;;;53.60;29.77;;;;;;;2.54;100.00;100967.34;5054694;28;20769;-78
2021/12/23 09:17:16;;;;;;;59.38;30.35;;;;;;;2.67;100.00;100970.94;5050162;28;20324;-77
2021/12/23 09:19:43;;;;;;;60.60;30.38;;;;;;;2.67;100.00;100960.09;5044502;28;20075;-78
2021/12/23 09:22:09;;;;;;;54.75;29.80;;;;;;;2.66;100.00;100956.59;5044882;28;20024;-76
2021/12/23 09:24:37;;;;;;;54.63;30.10;;;;;;;2.62;100.00;100951.84;5044194;28;20461;-77
2021/12/23 09:34:59;;;;;;;52.67;29.42;;;;;;;2.74;100.00;100960.88;5049264;28;20468;-80
2021/12/23 09:37:35;;;;;;;55.47;29.67;;;;;;;2.90;100.00;100946.72;5053155;28;20097;-77
2021/12/23 09:40:02;;;;;;;53.22;27.67;;;;;;;2.72;100.00;100938.59;5045566;28;20028;-79
2021/12/23 09:42:31;;;;;;;53.45;28.48;;;;;;;2.89;100.00;100936.91;5032327;28;20451;-79
2021/12/23 09:45:00;;;;;;;53.35;28.33;;;;;;;2.88;100.00;100935.25;5052237;28;20040;-78
2021/12/23 09:47:33;;;;;;;55.55;30.13;;;;;;;2.97;100.00;100943.06;5048895;28;20091;-76
2021/12/23 09:50:02;;;;;;;54.10;29.52;;;;;;;3.07;100.00;100935.22;5053432;28;20107;-78
2021/12/23 09:52:32;;;;;;;61.33;30.35;;;;;;;3.05;100.00;100931.91;5052644;28;20025;-78
2021/12/23 09:55:00;;;;;;;52.22;28.45;;;;;;;3.11;100.00;100929.09;5056976;28;20095;-77
2021/12/23 09:57:29;;;;;;;54.90;29.40;;;;;;;3.20;100.00;100940.47;5050149;28;20033;-77
2021/12/23 09:59:55;;;;;;;53.63;29.65;;;;;;;3.34;100.00;100938.38;5043541;28;20101;-77
2021/12/23 10:02:21;;;;;;;54.17;28.63;;;;;;;3.28;100.00;100933.88;5058435;28;20443;-77
2021/12/23 10:04:46;;;;;;;52.33;28.58;;;;;;;3.38;100.00;100934.16;5057224;28;20033;-77
2021/12/23 10:07:12;;;;;;;53.92;30.67;;;;;;;3.40;100.00;100931.22;5040828;28;20036;-78
2021/12/23 10:09:57;;;;;;;51.03;28.33;;;;;;;3.06;100.00;100939.00;5056998;28;20491;-78
2021/12/23 10:39:59;;;;;;;49.92;28.77;;;;;;;3.48;100.00;100915.44;5064272;28;20024;-77
2021/12/23 10:42:27;;;;;;;48.47;27.75;;;;;;;3.70;100.00;100904.00;5043027;28;20151;-77
2021/12/23 10:44:59;;;;;;;48.83;27.35;;;;;;;3.18;100.00;100904.66;5039585;28;20550;-79
2021/12/23 10:48:00;;;;;;;53.45;28.27;;;;;;;3.58;100.00;100917.56;5055554;28;20028;-77
2021/12/23 10:50:38;;;;;;;48.78;28.05;;;;;;;3.38;100.00;100914.34;5046310;28;20119;-78
2021/12/23 10:53:10;;;;;;;52.03;27.98;;;;;;;3.50;100.00;100931.47;5056255;28;20408;-78
2021/12/23 10:58:22;;;;;;;49.70;28.40;;;;;;;3.44;100.00;100921.53;5044912;28;20514;-75
2021/12/23 11:00:52;;;;;;;55.72;29.55;;;;;;;3.38;100.00;100915.19;5042491;28;20032;-76
2021/12/23 11:06:17;;;;;;;47.13;27.05;;;;;;;3.95;100.00;100903.81;5042596;28;20376;-76
2021/12/23 11:09:09;;;;;;;45.83;26.80;;;;;;;3.91;100.00;100888.22;5045664;28;20028;-77
2021/12/23 11:37:04;;;;;;;48.85;27.15;;;;;;;4.57;100.00;100812.78;5044205;28;20066;-78
2021/12/23 11:39:34;;;;;;;43.35;27.40;;;;;;;4.33;100.00;100791.16;5047604;28;20029;-78
2021/12/23 11:42:13;;;;;;;46.92;26.63;;;;;;;4.63;100.00;100784.66;5042181;28;20025;-78
2021/12/23 11:44:40;;;;;;;47.92;26.13;;;;;;;4.73;100.00;100775.88;5060881;28;20459;-80
2021/12/23 11:47:15;;;;;;;41.90;25.25;;;;;;;4.89;100.00;100776.97;5054901;28;20060;-79
2021/12/23 11:49:44;;;;;;;39.67;24.65;;;;;;;5.00;100.00;100762.50;5048464;28;20694;-78
2021/12/23 11:52:10;;;;;;;46.83;27.48;;;;;;;4.84;100.00;100763.28;5047258;28;20389;-78
2021/12/23 11:54:47;;;;;;;47.83;27.17;;;;;;;4.81;100.00;100761.06;5054509;28;20032;-77
2021/12/23 11:57:13;;;;;;;49.88;28.02;;;;;;;4.77;100.00;100761.56;5046172;28;20148;-79
2021/12/23 11:59:42;;;;;;;46.03;27.80;;;;;;;4.53;100.00;100766.28;5042925;28;20044;-79
2021/12/23 12:02:17;;;;;;;43.67;26.85;;;;;;;4.40;100.00;100769.31;5025705;28;20377;-79
2021/12/23 12:04:45;;;;;;;42.97;26.42;;;;;;;4.43;100.00;100771.53;5041450;28;20033;-78
2021/12/23 12:07:21;;;;;;;45.33;26.33;;;;;;;4.12;100.00;100778.28;5061654;28;20028;-79
2021/12/23 12:09:53;;;;;;;44.10;26.05;;;;;;;4.48;100.00;100768.91;5043737;28;20031;-78
2021/12/23 12:12:19;;;;;;;41.65;25.77;;;;;;;4.11;100.00;100771.19;5043081;28;20506;-82
2021/12/23 12:14:46;;;;;;;43.53;25.50;;;;;;;4.42;100.00;100759.03;5042441;28;20136;-79
2021/12/23 12:17:24;;;;;;;43.38;25.92;;;;;;;4.70;100.00;100750.00;5059303;28;20051;-79
2021/12/23 12:20:23;;;;;;;42.67;26.98;;;;;;;5.00;100.00;100748.91;5061080;28;20037;-79
2021/12/23 12:22:56;;;;;;;43.38;26.23;;;;;;;4.80;100.00;100746.66;5062970;28;20032;-80